createdAt,value
2017-09-20T00:00:33.205Z,83.5
2017-09-20T00:01:34.784Z,83.3
2017-09-20T00:02:36.277Z,83.2
2017-09-20T00:03:37.878Z,83.9
2017-09-20T00:04:39.469Z,84.2
2017-09-20T00:05:41.077Z,83.7
2017-09-20T00:06:42.673Z,83.8
2017-09-20T00:07:44.254Z,84.1
2017-09-20T00:08:45.834Z,83.9
2017-09-20T00:09:47.441Z,83.9
2017-09-20T00:10:49.176Z,83.7
2017-09-20T00:11:50.794Z,83.9
2017-09-20T00:12:52.353Z,83.9
2017-09-20T00:13:54.005Z,84.1
2017-09-20T00:14:55.589Z,84.4
2017-09-20T00:15:57.217Z,84.3
2017-09-20T00:16:58.773Z,84.1
2017-09-20T00:18:00.366Z,84.0
2017-09-20T00:19:01.957Z,83.9
2017-09-20T00:20:03.498Z,83.9
2017-09-20T00:21:05.120Z,83.9
2017-09-20T00:22:06.656Z,83.9
2017-09-20T00:23:08.252Z,83.9
2017-09-20T00:24:09.800Z,83.9
2017-09-20T00:25:11.421Z,83.9
2017-09-20T00:26:13.027Z,83.9
2017-09-20T00:27:14.640Z,84.2
2017-09-20T00:28:16.278Z,83.9
2017-09-20T00:29:17.810Z,83.8
2017-09-20T00:30:19.439Z,83.9
2017-09-20T00:31:21.088Z,84.2
2017-09-20T00:32:22.642Z,83.9
2017-09-20T00:33:24.202Z,83.9
2017-09-20T00:34:25.895Z,83.9
2017-09-20T00:35:27.525Z,83.9
2017-09-20T00:36:29.138Z,83.9
2017-09-20T00:37:30.709Z,83.8
2017-09-20T00:38:32.282Z,83.9
2017-09-20T00:39:33.889Z,84.2
2017-09-20T00:40:35.427Z,84.1
2017-09-20T00:41:37.014Z,83.8
2017-09-20T00:42:38.606Z,83.9
2017-09-20T00:43:40.167Z,83.9
2017-09-20T00:44:41.737Z,83.8
2017-09-20T00:45:43.333Z,83.9
2017-09-20T00:46:44.999Z,83.9
2017-09-20T00:47:46.600Z,83.9
2017-09-20T00:48:48.228Z,83.9
2017-09-20T00:49:49.858Z,83.7
2017-09-20T00:50:51.402Z,83.9
2017-09-20T00:51:52.972Z,83.7
2017-09-20T00:52:54.539Z,83.9
2017-09-20T00:53:56.117Z,83.9
2017-09-20T00:54:57.799Z,84.2
2017-09-20T00:55:59.413Z,83.7
2017-09-20T00:57:00.935Z,83.9
2017-09-20T00:58:02.473Z,84.1
2017-09-20T00:59:04.073Z,83.9
2017-09-20T01:00:05.644Z,84.0
2017-09-20T01:01:07.338Z,83.6
2017-09-20T01:02:08.894Z,84.0
2017-09-20T01:03:10.458Z,83.9
2017-09-20T01:04:12.048Z,83.9
2017-09-20T01:05:13.609Z,83.9
2017-09-20T01:06:15.155Z,83.9
2017-09-20T01:07:16.787Z,83.9
2017-09-20T01:08:18.434Z,84.0
2017-09-20T01:09:20.053Z,83.8
2017-09-20T01:10:21.607Z,84.1
2017-09-20T01:11:23.153Z,83.9
2017-09-20T01:12:24.802Z,84.3
2017-09-20T01:13:26.375Z,84.5
2017-09-20T01:14:27.976Z,84.4
2017-09-20T01:15:29.580Z,84.2
2017-09-20T01:16:31.096Z,84.6
2017-09-20T01:17:32.670Z,84.5
2017-09-20T01:18:34.272Z,84.5
2017-09-20T01:19:35.858Z,84.2
2017-09-20T01:20:37.444Z,84.1
2017-09-20T01:21:39.032Z,84.7
2017-09-20T01:25:20.956Z,84.6
2017-09-20T01:32:57.892Z,84.0
2017-09-20T01:33:59.283Z,84.4
2017-09-20T01:35:00.681Z,84.4
2017-09-20T01:36:02.079Z,84.1
2017-09-20T01:46:17.987Z,84.7
2017-09-20T01:47:19.386Z,84.3
2017-09-20T01:48:20.785Z,84.2
2017-09-20T01:49:22.244Z,84.7
2017-09-20T01:50:23.639Z,84.9
2017-09-20T01:51:25.038Z,84.9
2017-09-20T01:52:26.434Z,84.9
2017-09-20T01:53:27.837Z,84.9
2017-09-20T01:54:29.231Z,84.8
2017-09-20T01:55:30.628Z,84.9
2017-09-20T01:56:32.021Z,84.7
2017-09-20T01:57:33.417Z,84.9
2017-09-20T01:58:34.822Z,84.7
2017-09-20T01:59:36.234Z,84.9
2017-09-20T02:00:37.642Z,84.6
2017-09-20T02:01:39.052Z,84.7
2017-09-20T02:02:40.442Z,84.5
2017-09-20T02:03:41.897Z,84.5
2017-09-20T02:04:43.302Z,84.5
2017-09-20T02:05:44.700Z,84.7
2017-09-20T02:06:46.097Z,85.1
2017-09-20T02:07:47.494Z,85.0
2017-09-20T02:08:48.890Z,85.1
2017-09-20T02:09:50.314Z,85.1
2017-09-20T02:10:51.712Z,85.1
2017-09-20T02:11:53.110Z,85.2
2017-09-20T02:12:54.517Z,85.2
2017-09-20T02:13:55.921Z,84.9
2017-09-20T02:14:57.315Z,85.1
2017-09-20T02:15:58.708Z,84.9
2017-09-20T02:17:00.107Z,84.9
2017-09-20T02:18:01.505Z,85.5
2017-09-20T02:19:02.919Z,85.5
2017-09-20T02:20:04.318Z,85.7
2017-09-20T02:21:05.714Z,85.9
2017-09-20T02:22:07.116Z,85.4
2017-09-20T02:23:08.514Z,85.7
2017-09-20T02:24:09.911Z,85.5
2017-09-20T02:25:11.311Z,85.4
2017-09-20T02:26:12.721Z,85.5
2017-09-20T02:27:14.115Z,85.5
2017-09-20T02:28:15.515Z,85.5
2017-09-20T02:29:16.911Z,85.3
2017-09-20T02:30:18.322Z,85.6
2017-09-20T02:31:19.727Z,85.4
2017-09-20T02:32:21.124Z,85.8
2017-09-20T02:33:22.523Z,85.6
2017-09-20T02:34:23.923Z,85.4
2017-09-20T02:35:25.326Z,85.4
2017-09-20T02:36:26.723Z,85.6
2017-09-20T02:37:28.122Z,85.5
2017-09-20T02:38:29.523Z,85.6
2017-09-20T02:39:30.920Z,85.5
2017-09-20T02:40:32.315Z,85.6
2017-09-20T02:41:33.711Z,84.9
2017-09-20T02:42:35.112Z,84.9
2017-09-20T02:43:36.510Z,84.9
2017-09-20T02:44:37.904Z,85.5
2017-09-20T02:45:39.301Z,85.0
2017-09-20T02:46:40.700Z,85.4
2017-09-20T02:47:42.095Z,84.9
2017-09-20T02:48:43.488Z,85.2
2017-09-20T02:49:44.892Z,85.1
2017-09-20T02:50:46.291Z,85.0
2017-09-20T02:51:47.684Z,85.5
2017-09-20T02:52:49.087Z,85.5
2017-09-20T02:53:50.497Z,85.6
2017-09-20T02:54:51.898Z,85.4
2017-09-20T02:55:53.306Z,85.6
2017-09-20T02:56:54.704Z,85.5
2017-09-20T02:57:56.106Z,85.5
2017-09-20T02:58:57.569Z,85.9
2017-09-20T02:59:58.964Z,85.6
2017-09-20T03:01:00.371Z,85.3
2017-09-20T03:02:01.784Z,86.1
2017-09-20T03:03:03.164Z,86.0
2017-09-20T03:04:04.561Z,86.0
2017-09-20T03:05:05.961Z,86.1
2017-09-20T03:06:07.360Z,86.1
2017-09-20T03:07:08.836Z,86.0
2017-09-20T03:08:10.236Z,86.1
2017-09-20T03:09:11.634Z,85.8
2017-09-20T03:10:13.053Z,85.8
2017-09-20T03:11:14.458Z,85.5
2017-09-20T03:12:15.869Z,85.9
2017-09-20T03:13:17.258Z,85.5
2017-09-20T03:14:18.651Z,85.9
2017-09-20T03:15:20.065Z,85.8
2017-09-20T03:16:21.462Z,86.0
2017-09-20T03:17:22.873Z,85.9
2017-09-20T03:18:24.275Z,85.8
2017-09-20T03:19:25.678Z,86.0
2017-09-20T03:20:27.072Z,85.9
2017-09-20T03:21:28.465Z,86.0
2017-09-20T03:22:29.862Z,86.1
2017-09-20T03:23:31.258Z,85.9
2017-09-20T03:24:32.659Z,86.1
2017-09-20T03:25:34.055Z,86.2
2017-09-20T03:26:35.457Z,85.9
2017-09-20T03:27:36.860Z,86.0
2017-09-20T03:28:38.261Z,85.7
2017-09-20T03:29:39.655Z,85.5
2017-09-20T03:30:41.063Z,85.3
2017-09-20T03:31:42.455Z,85.9
2017-09-20T03:32:43.860Z,85.9
2017-09-20T03:33:45.259Z,86.0
2017-09-20T03:34:46.654Z,86.1
2017-09-20T03:35:48.050Z,86.0
2017-09-20T03:36:49.450Z,85.4
2017-09-20T03:37:50.849Z,85.6
2017-09-20T03:38:52.247Z,85.4
2017-09-20T03:39:53.645Z,85.3
2017-09-20T03:40:55.054Z,85.8
2017-09-20T03:41:56.444Z,86.1
2017-09-20T03:42:57.862Z,85.4
2017-09-20T03:43:59.263Z,85.7
2017-09-20T03:45:00.656Z,85.3
2017-09-20T03:46:02.053Z,86.2
2017-09-20T03:47:03.459Z,85.9
2017-09-20T03:48:04.861Z,85.7
2017-09-20T03:49:06.254Z,86.1
2017-09-20T03:50:07.651Z,85.6
2017-09-20T03:51:09.057Z,86.1
2017-09-20T03:52:10.468Z,86.1
2017-09-20T03:53:11.868Z,85.8
2017-09-20T03:54:13.271Z,86.0
2017-09-20T03:55:14.686Z,86.0
2017-09-20T03:56:16.088Z,86.1
2017-09-20T03:57:17.493Z,86.0
2017-09-20T03:58:18.891Z,86.1
2017-09-20T03:59:20.292Z,86.1
2017-09-20T04:00:21.691Z,86.3
2017-09-20T04:01:23.096Z,86.1
2017-09-20T04:02:24.496Z,86.6
2017-09-20T04:03:25.891Z,86.6
2017-09-20T04:04:27.293Z,86.3
2017-09-20T04:05:28.687Z,86.3
2017-09-20T04:06:30.084Z,86.4
2017-09-20T04:07:31.492Z,86.1
2017-09-20T04:08:32.890Z,86.1
2017-09-20T04:09:34.292Z,86.2
2017-09-20T04:10:35.694Z,86.2
2017-09-20T04:11:37.092Z,86.5
2017-09-20T04:12:38.499Z,86.1
2017-09-20T04:13:39.900Z,86.3
2017-09-20T04:14:41.299Z,86.2
2017-09-20T04:15:42.697Z,86.5
2017-09-20T04:16:44.097Z,86.6
2017-09-20T04:17:45.491Z,86.3
2017-09-20T04:18:46.886Z,86.1
2017-09-20T04:19:48.311Z,86.2
2017-09-20T04:20:49.708Z,86.2
2017-09-20T04:21:51.105Z,86.2
2017-09-20T04:22:52.506Z,86.3
2017-09-20T04:23:53.907Z,86.3
2017-09-20T04:24:55.306Z,86.7
2017-09-20T04:25:56.706Z,87.0
2017-09-20T04:26:58.102Z,86.9
2017-09-20T04:27:59.531Z,86.9
2017-09-20T04:29:00.898Z,86.8
2017-09-20T04:30:02.299Z,86.7
2017-09-20T04:31:03.693Z,86.3
2017-09-20T04:32:05.089Z,86.8
2017-09-20T04:33:06.489Z,86.7
2017-09-20T04:34:07.891Z,87.0
2017-09-20T04:35:09.288Z,86.8
2017-09-20T04:36:10.697Z,86.8
2017-09-20T04:37:12.109Z,86.8
2017-09-20T04:38:13.505Z,86.9
2017-09-20T04:39:14.901Z,86.5
2017-09-20T04:40:16.307Z,86.8
2017-09-20T04:41:17.706Z,86.8
2017-09-20T04:42:19.103Z,86.8
2017-09-20T04:43:20.498Z,87.0
2017-09-20T04:44:21.918Z,86.8
2017-09-20T04:45:23.324Z,86.2
2017-09-20T04:46:24.812Z,86.3
2017-09-20T04:47:26.210Z,86.5
2017-09-20T04:48:27.607Z,86.2
2017-09-20T04:49:29.050Z,86.3
2017-09-20T04:50:30.447Z,86.7
2017-09-20T04:51:31.846Z,86.6
2017-09-20T04:52:33.249Z,86.4
2017-09-20T04:53:34.865Z,86.4
2017-09-20T04:54:36.278Z,86.4
2017-09-20T04:55:37.675Z,86.4
2017-09-20T04:56:39.073Z,86.5
2017-09-20T04:57:40.533Z,86.6
2017-09-20T04:58:41.931Z,86.4
2017-09-20T04:59:43.333Z,86.8
2017-09-20T05:00:44.730Z,86.8
2017-09-20T05:01:46.122Z,86.7
2017-09-20T05:02:47.543Z,86.4
2017-09-20T05:03:48.943Z,86.7
2017-09-20T05:04:50.340Z,86.8
2017-09-20T05:05:51.741Z,86.9
2017-09-20T05:06:53.141Z,86.4
2017-09-20T05:07:54.535Z,86.8
2017-09-20T05:08:55.932Z,86.7
2017-09-20T05:09:57.333Z,86.7
2017-09-20T05:10:58.730Z,86.8
2017-09-20T05:12:00.126Z,86.7
2017-09-20T05:13:01.526Z,86.6
2017-09-20T05:14:02.922Z,87.0
2017-09-20T05:15:04.319Z,86.4
2017-09-20T05:16:05.719Z,87.0
2017-09-20T05:17:07.130Z,86.6
2017-09-20T05:18:08.528Z,87.2
2017-09-20T05:19:09.927Z,86.8
2017-09-20T05:20:11.332Z,87.0
2017-09-20T05:21:12.819Z,87.0
2017-09-20T05:22:14.202Z,87.1
2017-09-20T05:23:15.600Z,86.9
2017-09-20T05:24:17.000Z,86.9
2017-09-20T05:25:18.407Z,86.9
2017-09-20T05:26:19.804Z,87.1
2017-09-20T05:27:21.204Z,87.0
2017-09-20T05:28:22.602Z,87.2
2017-09-20T05:29:23.999Z,87.1
2017-09-20T05:30:25.398Z,87.1
2017-09-20T05:31:26.831Z,87.0
2017-09-20T05:32:28.229Z,87.3
2017-09-20T05:33:29.627Z,87.4
2017-09-20T05:34:31.026Z,87.0
2017-09-20T05:35:32.425Z,87.0
2017-09-20T05:36:33.825Z,87.0
2017-09-20T05:37:35.225Z,87.0
2017-09-20T05:38:36.703Z,87.0
2017-09-20T05:39:38.098Z,87.0
2017-09-20T05:40:39.502Z,86.8
2017-09-20T05:41:40.903Z,87.0
2017-09-20T05:42:42.302Z,87.2
2017-09-20T05:43:43.697Z,87.1
2017-09-20T05:44:45.121Z,87.6
2017-09-20T05:45:46.492Z,87.2
2017-09-20T05:46:47.893Z,87.2
2017-09-20T05:47:49.302Z,87.7
2017-09-20T05:48:50.701Z,87.9
2017-09-20T05:49:52.107Z,87.9
2017-09-20T05:50:53.502Z,87.5
2017-09-20T05:51:54.907Z,87.5
2017-09-20T05:52:56.295Z,87.6
2017-09-20T05:53:57.693Z,87.6
2017-09-20T05:54:59.094Z,87.6
2017-09-20T05:56:00.497Z,87.5
2017-09-20T05:57:01.897Z,87.5
2017-09-20T05:58:03.301Z,87.5
2017-09-20T05:59:04.688Z,87.6
2017-09-20T06:00:06.089Z,87.3
2017-09-20T06:01:07.501Z,87.8
2017-09-20T06:02:08.904Z,87.7
2017-09-20T06:03:10.354Z,87.3
2017-09-20T06:04:11.761Z,87.4
2017-09-20T06:05:13.161Z,87.5
2017-09-20T06:06:14.562Z,87.6
2017-09-20T06:07:15.968Z,87.5
2017-09-20T06:08:17.373Z,87.6
2017-09-20T06:09:18.773Z,87.3
2017-09-20T06:10:20.178Z,87.3
2017-09-20T06:11:21.581Z,87.8
2017-09-20T06:12:22.984Z,87.9
2017-09-20T06:13:24.390Z,87.7
2017-09-20T06:14:25.796Z,87.9
2017-09-20T06:15:27.202Z,87.6
2017-09-20T06:16:28.599Z,87.8
2017-09-20T06:17:30.006Z,87.7
2017-09-20T06:18:31.409Z,87.6
2017-09-20T06:19:32.813Z,87.6
2017-09-20T06:20:34.276Z,87.6
2017-09-20T06:21:35.686Z,87.8
2017-09-20T06:22:37.133Z,87.9
2017-09-20T06:23:38.539Z,87.9
2017-09-20T06:24:39.955Z,87.6
2017-09-20T06:25:41.409Z,87.5
2017-09-20T06:26:42.811Z,87.7
2017-09-20T06:27:44.220Z,87.8
2017-09-20T06:28:45.641Z,87.9
2017-09-20T06:29:47.040Z,87.9
2017-09-20T06:30:48.452Z,87.6
2017-09-20T06:31:49.884Z,87.6
2017-09-20T06:32:51.292Z,87.4
2017-09-20T06:33:52.697Z,87.7
2017-09-20T06:34:54.102Z,87.4
2017-09-20T06:35:55.511Z,87.8
2017-09-20T06:36:56.917Z,87.8
2017-09-20T06:37:58.328Z,87.5
2017-09-20T06:38:59.734Z,87.5
2017-09-20T06:40:01.171Z,87.7
2017-09-20T06:41:02.573Z,87.3
2017-09-20T06:42:03.975Z,87.6
2017-09-20T06:43:05.402Z,87.9
2017-09-20T06:44:06.815Z,88.0
2017-09-20T06:45:08.220Z,87.7
2017-09-20T06:46:09.640Z,87.8
2017-09-20T06:47:11.094Z,88.0
2017-09-20T06:48:12.531Z,87.6
2017-09-20T06:49:13.964Z,88.3
2017-09-20T06:50:15.431Z,88.1
2017-09-20T06:51:16.859Z,88.3
2017-09-20T06:52:18.277Z,87.9
2017-09-20T06:53:19.729Z,88.4
2017-09-20T06:54:21.142Z,87.7
2017-09-20T06:55:22.591Z,88.8
2017-09-20T06:56:24.038Z,88.3
2017-09-20T06:57:25.475Z,87.8
2017-09-20T06:58:26.916Z,88.4
2017-09-20T06:59:28.365Z,88.0
2017-09-20T07:00:29.832Z,88.3
2017-09-20T07:01:31.407Z,88.5
2017-09-20T07:02:32.914Z,88.4
2017-09-20T07:03:34.443Z,88.7
2017-09-20T07:04:35.963Z,89.4
2017-09-20T07:05:37.526Z,88.5
2017-09-20T07:06:39.037Z,89.2
2017-09-20T07:07:40.615Z,88.5
2017-09-20T07:08:42.321Z,88.9
2017-09-20T07:09:43.831Z,89.2
2017-09-20T07:10:45.372Z,89.3
2017-09-20T07:11:46.924Z,89.3
2017-09-20T07:12:48.453Z,88.4
2017-09-20T07:13:49.973Z,88.1
2017-09-20T07:14:52.099Z,88.4
2017-09-20T07:15:53.657Z,88.6
2017-09-20T07:16:55.209Z,88.5
2017-09-20T07:17:56.734Z,88.5
2017-09-20T07:18:58.251Z,88.7
2017-09-20T07:19:59.788Z,88.5
2017-09-20T07:21:01.343Z,88.6
2017-09-20T07:22:02.880Z,88.4
2017-09-20T07:23:04.386Z,88.6
2017-09-20T07:24:05.922Z,88.0
2017-09-20T07:25:07.436Z,88.4
2017-09-20T07:26:08.947Z,88.0
2017-09-20T07:27:10.428Z,88.2
2017-09-20T07:28:11.977Z,88.2
2017-09-20T07:29:13.513Z,87.8
2017-09-20T07:30:15.009Z,87.9
2017-09-20T07:31:16.567Z,88.3
2017-09-20T07:32:18.010Z,88.2
2017-09-20T07:33:19.446Z,87.8
2017-09-20T07:34:20.956Z,87.9
2017-09-20T07:35:22.443Z,87.4
2017-09-20T07:36:23.885Z,87.5
2017-09-20T07:37:25.300Z,87.4
2017-09-20T07:38:26.704Z,87.7
2017-09-20T07:39:28.112Z,88.0
2017-09-20T07:40:29.567Z,88.0
2017-09-20T07:41:30.990Z,88.3
2017-09-20T07:42:32.410Z,87.1
2017-09-20T07:43:33.852Z,86.9
2017-09-20T07:44:35.285Z,87.0
2017-09-20T07:45:36.711Z,87.0
2017-09-20T07:46:38.150Z,87.0
2017-09-20T07:47:39.601Z,87.4
2017-09-20T07:48:41.059Z,86.9
2017-09-20T07:49:42.491Z,87.3
2017-09-20T07:50:43.944Z,87.4
2017-09-20T07:51:45.413Z,87.0
2017-09-20T07:52:46.894Z,87.2
2017-09-20T07:53:48.358Z,87.1
2017-09-20T07:54:49.861Z,87.1
2017-09-20T07:55:51.340Z,87.1
2017-09-20T07:56:52.874Z,87.2
2017-09-20T07:57:54.380Z,87.3
2017-09-20T07:58:55.839Z,87.0
2017-09-20T07:59:57.331Z,87.0
2017-09-20T08:00:58.777Z,87.0
2017-09-20T08:02:00.231Z,87.1
2017-09-20T08:03:01.702Z,86.6
2017-09-20T08:04:03.173Z,86.8
2017-09-20T08:05:04.683Z,87.0
2017-09-20T08:06:06.149Z,86.6
2017-09-20T08:07:07.629Z,86.9
2017-09-20T08:08:09.087Z,87.1
2017-09-20T08:09:10.565Z,86.9
2017-09-20T08:10:12.022Z,86.7
2017-09-20T08:11:13.498Z,86.5
2017-09-20T08:12:14.938Z,86.4
2017-09-20T08:13:16.423Z,86.6
2017-09-20T08:14:17.903Z,86.0
2017-09-20T08:15:19.432Z,86.1
2017-09-20T08:16:20.906Z,85.9
2017-09-20T08:17:22.360Z,86.0
2017-09-20T08:18:23.810Z,85.5
2017-09-20T08:19:25.226Z,85.5
2017-09-20T08:20:26.664Z,85.7
2017-09-20T08:21:28.087Z,85.8
2017-09-20T08:22:29.518Z,86.0
2017-09-20T08:23:30.922Z,85.6
2017-09-20T08:24:32.336Z,85.3
2017-09-20T08:25:33.744Z,85.1
2017-09-20T08:26:35.153Z,84.9
2017-09-20T08:27:36.566Z,84.3
2017-09-20T08:28:37.972Z,84.0
2017-09-20T08:29:39.387Z,83.7
2017-09-20T08:30:40.834Z,83.4
2017-09-20T08:31:43.017Z,83.5
2017-09-20T08:32:44.423Z,83.5
2017-09-20T08:33:45.840Z,83.5
2017-09-20T08:34:47.253Z,83.7
2017-09-20T08:35:48.671Z,83.2
2017-09-20T08:36:50.095Z,83.5
2017-09-20T08:37:51.476Z,83.3
2017-09-20T08:38:52.884Z,83.3
2017-09-20T08:39:54.286Z,83.1
2017-09-20T08:40:55.689Z,82.7
2017-09-20T08:41:57.103Z,82.5
2017-09-20T08:42:58.507Z,82.7
2017-09-20T08:43:59.923Z,82.7
2017-09-20T08:45:01.331Z,82.6
2017-09-20T08:46:02.741Z,82.9
2017-09-20T08:47:04.145Z,83.1
2017-09-20T08:48:05.551Z,83.0
2017-09-20T08:49:06.960Z,83.3
2017-09-20T08:50:08.363Z,83.3
2017-09-20T08:51:09.775Z,83.1
2017-09-20T08:52:11.172Z,82.8
2017-09-20T08:53:12.593Z,82.9
2017-09-20T08:54:14.025Z,83.0
2017-09-20T08:55:15.457Z,82.3
2017-09-20T08:56:16.865Z,82.1
2017-09-20T08:57:18.281Z,82.1
2017-09-20T08:58:19.682Z,82.1
2017-09-20T08:59:21.084Z,82.3
2017-09-20T09:00:22.501Z,81.9
2017-09-20T09:01:23.905Z,82.1
2017-09-20T09:02:25.306Z,82.1
2017-09-20T09:03:26.712Z,81.6
2017-09-20T09:04:28.122Z,81.5
2017-09-20T09:05:29.523Z,81.3
2017-09-20T09:06:30.926Z,81.5
2017-09-20T09:07:32.330Z,81.2
2017-09-20T09:08:33.746Z,81.1
2017-09-20T09:09:35.165Z,81.6
2017-09-20T09:10:36.574Z,82.0
2017-09-20T09:11:37.978Z,82.0
2017-09-20T09:12:39.387Z,82.1
2017-09-20T09:13:40.796Z,82.0
2017-09-20T09:14:42.209Z,81.6
2017-09-20T09:15:43.614Z,81.2
2017-09-20T09:16:45.022Z,81.5
2017-09-20T09:17:46.431Z,81.1
2017-09-20T09:18:47.830Z,81.0
2017-09-20T09:19:49.239Z,81.1
2017-09-20T09:20:50.667Z,81.4
2017-09-20T09:21:52.067Z,81.0
2017-09-20T09:22:53.479Z,81.5
2017-09-20T09:23:54.888Z,81.3
2017-09-20T09:24:56.285Z,81.5
2017-09-20T09:25:57.697Z,81.2
2017-09-20T09:26:59.106Z,81.2
2017-09-20T09:28:00.511Z,81.2
2017-09-20T09:29:01.918Z,81.0
2017-09-20T09:30:03.328Z,80.8
2017-09-20T09:31:04.742Z,80.8
2017-09-20T09:32:06.149Z,80.3
2017-09-20T09:33:07.548Z,80.6
2017-09-20T09:34:08.951Z,80.3
2017-09-20T09:35:10.361Z,79.7
2017-09-20T09:36:11.767Z,80.1
2017-09-20T09:37:13.171Z,79.9
2017-09-20T09:38:14.583Z,80.0
2017-09-20T09:39:15.993Z,79.5
2017-09-20T09:40:17.396Z,79.0
2017-09-20T09:41:18.806Z,78.9
2017-09-20T09:42:20.210Z,79.0
2017-09-20T09:43:21.614Z,78.3
2017-09-20T09:44:23.038Z,78.5
2017-09-20T09:45:24.456Z,78.9
2017-09-20T09:46:25.867Z,78.1
2017-09-20T09:47:27.273Z,78.4
2017-09-20T09:48:28.685Z,78.0
2017-09-20T09:49:30.088Z,78.1
2017-09-20T09:50:31.508Z,78.3
2017-09-20T09:51:32.930Z,78.1
2017-09-20T09:52:34.342Z,78.1
2017-09-20T09:53:35.753Z,78.4
2017-09-20T09:54:37.154Z,78.4
2017-09-20T09:55:38.557Z,78.0
2017-09-20T09:56:39.958Z,77.4
2017-09-20T09:57:41.368Z,78.0
2017-09-20T09:58:42.773Z,77.6
2017-09-20T09:59:44.182Z,76.9
2017-09-20T10:00:45.588Z,77.2
2017-09-20T10:01:46.995Z,77.5
2017-09-20T10:02:48.401Z,76.9
2017-09-20T10:03:49.807Z,77.0
2017-09-20T10:04:51.215Z,77.2
2017-09-20T10:05:52.622Z,76.5
2017-09-20T10:06:54.030Z,76.6
2017-09-20T10:07:55.430Z,76.5
2017-09-20T10:08:56.832Z,77.0
2017-09-20T10:09:58.243Z,76.7
2017-09-20T10:10:59.641Z,76.5
2017-09-20T10:12:01.048Z,76.6
2017-09-20T10:13:02.455Z,75.6
2017-09-20T10:14:03.862Z,75.6
2017-09-20T10:15:05.270Z,75.4
2017-09-20T10:16:06.672Z,75.1
2017-09-20T10:17:08.073Z,75.2
2017-09-20T10:18:09.489Z,74.9
2017-09-20T10:19:10.905Z,74.2
2017-09-20T10:20:12.308Z,74.5
2017-09-20T10:21:13.716Z,74.7
2017-09-20T10:22:15.126Z,74.1
2017-09-20T10:23:16.529Z,73.5
2017-09-20T10:24:17.936Z,73.0
2017-09-20T10:25:19.340Z,72.7
2017-09-20T10:26:20.747Z,72.2
2017-09-20T10:27:22.148Z,71.9
2017-09-20T10:28:23.555Z,71.7
2017-09-20T10:29:24.962Z,71.1
2017-09-20T10:30:26.364Z,71.8
2017-09-20T10:31:27.839Z,71.2
2017-09-20T10:32:29.246Z,70.9
2017-09-20T10:33:30.650Z,69.7
2017-09-20T10:34:32.063Z,70.0
2017-09-20T10:35:33.472Z,70.2
2017-09-20T10:36:34.881Z,69.9
2017-09-20T10:37:36.294Z,70.5
2017-09-20T10:38:37.692Z,71.0
2017-09-20T10:39:39.121Z,70.7
2017-09-20T10:40:40.525Z,69.6
2017-09-20T10:41:41.930Z,68.3
2017-09-20T10:42:43.336Z,68.4
2017-09-20T10:43:45.001Z,68.0
2017-09-20T10:44:46.400Z,68.5
2017-09-20T10:45:47.811Z,67.7
2017-09-20T10:46:49.219Z,66.6
2017-09-20T10:47:50.630Z,66.6
2017-09-20T10:48:52.038Z,66.4
2017-09-20T10:49:53.456Z,65.9
2017-09-20T10:50:54.872Z,66.0
2017-09-20T10:51:56.269Z,66.0
2017-09-20T10:52:57.672Z,66.0
2017-09-20T10:53:59.072Z,67.2
2017-09-20T10:55:00.479Z,67.1
2017-09-20T10:56:01.888Z,67.5
2017-09-20T10:57:03.294Z,68.1
2017-09-20T10:58:04.696Z,68.1
2017-09-20T10:59:06.101Z,68.1
2017-09-20T11:00:07.504Z,67.8
2017-09-20T11:01:08.904Z,67.3
2017-09-20T11:02:10.308Z,67.8
2017-09-20T11:03:11.722Z,68.3
2017-09-20T11:04:13.135Z,68.2
2017-09-20T11:05:14.533Z,68.3
2017-09-20T11:06:15.935Z,67.6
2017-09-20T11:07:17.339Z,66.9
2017-09-20T11:08:18.740Z,67.1
2017-09-20T11:09:20.144Z,66.5
2017-09-20T11:10:21.549Z,66.5
2017-09-20T11:11:22.957Z,66.0
2017-09-20T11:12:24.363Z,65.9
2017-09-20T11:13:25.782Z,66.4
2017-09-20T11:14:27.185Z,66.3
2017-09-20T11:15:28.590Z,66.9
2017-09-20T11:16:29.996Z,67.2
2017-09-20T11:17:31.425Z,67.1
2017-09-20T11:18:32.832Z,66.4
2017-09-20T11:19:34.240Z,66.0
2017-09-20T11:20:35.646Z,65.3
2017-09-20T11:21:37.049Z,65.6
2017-09-20T11:22:38.465Z,65.4
2017-09-20T11:23:39.875Z,64.6
2017-09-20T11:24:41.302Z,64.9
2017-09-20T11:25:42.722Z,64.6
2017-09-20T11:26:44.132Z,64.7
2017-09-20T11:27:45.552Z,65.2
2017-09-20T11:28:46.949Z,64.4
2017-09-20T11:29:48.354Z,64.9
2017-09-20T11:30:49.766Z,64.5
2017-09-20T11:31:51.175Z,64.5
2017-09-20T11:32:52.586Z,64.9
2017-09-20T11:33:53.996Z,64.9
2017-09-20T11:34:55.398Z,64.8
2017-09-20T11:35:56.813Z,64.9
2017-09-20T11:36:58.214Z,65.2
2017-09-20T11:37:59.627Z,65.2
2017-09-20T11:39:01.026Z,65.1
2017-09-20T11:40:02.433Z,65.6
2017-09-20T11:41:03.839Z,66.3
2017-09-20T11:42:05.245Z,66.0
2017-09-20T11:43:06.657Z,66.3
2017-09-20T11:44:08.073Z,66.1
2017-09-20T11:45:09.480Z,65.5
2017-09-20T11:46:10.885Z,65.0
2017-09-20T11:47:12.289Z,65.1
2017-09-20T11:48:13.695Z,65.1
2017-09-20T11:49:15.107Z,65.1
2017-09-20T11:50:16.511Z,65.3
2017-09-20T11:51:17.918Z,65.4
2017-09-20T11:52:19.322Z,65.5
2017-09-20T11:53:20.731Z,65.7
2017-09-20T11:54:22.156Z,65.8
2017-09-20T11:55:24.068Z,66.3
2017-09-20T11:56:25.472Z,65.4
2017-09-20T11:57:26.902Z,64.5
2017-09-20T11:58:28.318Z,63.5
2017-09-20T11:59:29.740Z,63.4
2017-09-20T12:00:31.152Z,63.3
2017-09-20T12:01:32.566Z,61.9
2017-09-20T12:02:33.982Z,61.4
2017-09-20T12:03:35.391Z,61.6
2017-09-20T12:04:36.808Z,61.6
2017-09-20T12:05:38.212Z,62.1
2017-09-20T12:06:39.622Z,62.4
2017-09-20T12:07:41.034Z,63.1
2017-09-20T12:08:42.440Z,63.4
2017-09-20T12:09:43.856Z,63.1
2017-09-20T12:10:45.268Z,62.9
2017-09-20T12:11:46.687Z,62.3
2017-09-20T12:12:48.119Z,62.4
2017-09-20T12:13:49.525Z,62.5
2017-09-20T12:14:50.928Z,62.1
2017-09-20T12:15:52.343Z,62.5
2017-09-20T12:16:53.753Z,62.7
2017-09-20T12:17:55.164Z,62.6
2017-09-20T12:18:56.572Z,62.4
2017-09-20T12:19:57.989Z,62.5
2017-09-20T12:20:59.401Z,61.6
2017-09-20T12:22:00.808Z,62.0
2017-09-20T12:23:02.216Z,62.2
2017-09-20T12:24:03.623Z,62.6
2017-09-20T12:25:05.024Z,63.1
2017-09-20T12:26:06.427Z,63.0
2017-09-20T12:27:07.838Z,63.2
2017-09-20T12:28:09.251Z,63.9
2017-09-20T12:29:10.661Z,63.3
2017-09-20T12:30:12.067Z,63.8
2017-09-20T12:31:13.472Z,63.1
2017-09-20T12:32:14.883Z,62.2
2017-09-20T12:33:16.294Z,62.2
2017-09-20T12:34:17.708Z,61.6
2017-09-20T12:35:19.114Z,61.0
2017-09-20T12:36:20.524Z,61.6
2017-09-20T12:37:21.945Z,61.5
2017-09-20T12:38:23.349Z,61.0
2017-09-20T12:39:24.754Z,61.5
2017-09-20T12:40:26.175Z,61.3
2017-09-20T12:41:27.589Z,61.3
2017-09-20T12:42:28.996Z,61.2
2017-09-20T12:43:30.403Z,61.4
2017-09-20T12:44:31.815Z,61.0
2017-09-20T12:45:33.226Z,61.1
2017-09-20T12:46:34.637Z,61.6
2017-09-20T12:47:36.063Z,60.8
2017-09-20T12:48:37.492Z,60.1
2017-09-20T12:49:38.900Z,58.2
2017-09-20T12:50:40.327Z,57.7
2017-09-20T12:51:41.736Z,58.2
2017-09-20T12:52:43.147Z,57.7
2017-09-20T12:53:44.576Z,58.3
2017-09-20T12:54:45.982Z,58.3
2017-09-20T12:55:47.400Z,58.4
2017-09-20T12:56:48.809Z,58.5
2017-09-20T12:57:50.213Z,58.3
2017-09-20T12:58:51.625Z,58.3
2017-09-20T12:59:53.050Z,58.6
2017-09-20T13:00:54.456Z,58.2
2017-09-20T13:01:55.866Z,57.7
2017-09-20T13:02:57.274Z,58.2
2017-09-20T13:03:58.688Z,58.3
2017-09-20T13:05:00.110Z,58.9
2017-09-20T13:06:01.511Z,60.2
2017-09-20T13:07:02.925Z,60.5
2017-09-20T13:08:04.329Z,60.4
2017-09-20T13:09:05.740Z,61.0
2017-09-20T13:10:07.156Z,60.6
2017-09-20T13:11:08.567Z,60.1
2017-09-20T13:12:09.968Z,59.8
2017-09-20T13:13:11.374Z,58.7
2017-09-20T13:14:12.784Z,58.3
2017-09-20T13:15:14.191Z,57.9
2017-09-20T13:16:15.597Z,57.7
2017-09-20T13:17:17.006Z,56.6
2017-09-20T13:18:18.412Z,56.2
2017-09-20T13:19:19.821Z,55.8
2017-09-20T13:20:21.227Z,56.0
2017-09-20T13:21:22.633Z,55.0
2017-09-20T13:22:24.036Z,55.3
2017-09-20T13:23:25.441Z,55.5
2017-09-20T13:24:26.854Z,55.8
2017-09-20T13:25:28.262Z,55.8
2017-09-20T13:26:29.674Z,55.4
2017-09-20T13:27:31.089Z,55.9
2017-09-20T13:28:32.500Z,55.3
2017-09-20T13:29:33.909Z,56.0
2017-09-20T13:30:35.315Z,55.4
2017-09-20T13:31:36.733Z,56.7
2017-09-20T13:32:38.153Z,56.5
2017-09-20T13:33:39.560Z,56.7
2017-09-20T13:34:40.965Z,56.9
2017-09-20T13:35:42.380Z,57.2
2017-09-20T13:36:43.797Z,57.2
2017-09-20T13:37:46.102Z,56.8
2017-09-20T13:38:47.503Z,56.8
2017-09-20T13:39:48.913Z,56.7
2017-09-20T13:40:50.325Z,56.3
2017-09-20T13:41:51.730Z,56.5
2017-09-20T13:42:53.133Z,55.8
2017-09-20T13:43:54.539Z,55.8
2017-09-20T13:44:55.950Z,55.4
2017-09-20T13:45:57.369Z,55.8
2017-09-20T13:46:58.774Z,55.9
2017-09-20T13:48:00.181Z,56.0
2017-09-20T13:49:01.591Z,56.2
2017-09-20T13:50:03.007Z,56.7
2017-09-20T13:51:04.418Z,57.1
2017-09-20T13:52:05.836Z,57.2
2017-09-20T13:53:07.237Z,57.8
2017-09-20T13:54:08.656Z,57.8
2017-09-20T13:55:10.063Z,58.0
2017-09-20T13:56:11.471Z,57.4